createdAt,value
2017-11-20T00:00:05.045Z,92.70
2017-11-20T00:00:37.562Z,92.80
2017-11-20T00:01:10.064Z,92.90
2017-11-20T00:01:42.596Z,92.90
2017-11-20T00:02:15.090Z,92.80
2017-11-20T00:02:48.359Z,92.90
2017-11-20T00:03:20.880Z,92.70
2017-11-20T00:03:53.456Z,92.60
2017-11-20T00:04:25.996Z,92.60
2017-11-20T00:04:58.605Z,92.70
2017-11-20T00:05:31.127Z,92.70
2017-11-20T00:06:03.660Z,92.70
2017-11-20T00:06:36.952Z,92.70
2017-11-20T00:07:09.456Z,92.70
2017-11-20T00:07:41.964Z,92.70
2017-11-20T00:08:15.267Z,92.80
2017-11-20T00:08:47.774Z,92.70
2017-11-20T00:09:20.307Z,92.80
2017-11-20T00:09:52.828Z,92.90
2017-11-20T00:10:25.598Z,92.90
2017-11-20T00:10:58.130Z,92.90
2017-11-20T00:11:30.659Z,92.90
2017-11-20T00:12:03.277Z,92.90
2017-11-20T00:12:35.884Z,92.90
2017-11-20T00:13:08.398Z,92.80
2017-11-20T00:13:40.919Z,92.80
2017-11-20T00:14:13.420Z,92.80
2017-11-20T00:14:45.944Z,92.40
2017-11-20T00:15:18.452Z,92.50
2017-11-20T00:15:50.963Z,92.50
2017-11-20T00:16:23.473Z,92.40
2017-11-20T00:16:56.818Z,92.30
2017-11-20T00:17:29.364Z,92.50
2017-11-20T00:18:02.150Z,92.40
2017-11-20T00:18:34.671Z,92.50
2017-11-20T00:19:07.179Z,92.50
2017-11-20T00:19:39.874Z,92.40
2017-11-20T00:20:12.510Z,92.50
2017-11-20T00:20:45.083Z,92.60
2017-11-20T00:21:17.616Z,92.70
2017-11-20T00:21:50.131Z,92.70
2017-11-20T00:22:22.656Z,92.70
2017-11-20T00:22:55.166Z,92.90
2017-11-20T00:23:27.693Z,92.80
2017-11-20T00:24:00.222Z,92.70
2017-11-20T00:24:32.753Z,92.80
2017-11-20T00:25:05.804Z,92.80
2017-11-20T00:25:38.431Z,92.80
2017-11-20T00:26:10.953Z,92.80
2017-11-20T00:26:43.542Z,92.70
2017-11-20T00:27:16.132Z,92.70
2017-11-20T00:27:48.653Z,92.70
2017-11-20T00:28:21.155Z,92.70
2017-11-20T00:28:53.659Z,92.70
2017-11-20T00:29:26.175Z,92.60
2017-11-20T00:29:58.684Z,92.60
2017-11-20T00:30:31.201Z,92.60
2017-11-20T00:31:04.512Z,92.60
2017-11-20T00:31:37.038Z,92.60
2017-11-20T00:32:09.694Z,92.60
2017-11-20T00:32:42.204Z,92.60
2017-11-20T00:33:14.717Z,92.60
2017-11-20T00:33:47.225Z,92.50
2017-11-20T00:34:19.739Z,92.30
2017-11-20T00:34:52.251Z,92.30
2017-11-20T00:35:24.760Z,92.30
2017-11-20T00:35:57.279Z,91.90
2017-11-20T00:36:29.822Z,92.00
2017-11-20T00:37:02.330Z,92.10
2017-11-20T00:37:34.847Z,92.30
2017-11-20T00:38:08.108Z,92.60
2017-11-20T00:38:40.676Z,92.60
2017-11-20T00:39:13.181Z,92.60
2017-11-20T00:39:45.866Z,92.40
2017-11-20T00:40:18.354Z,92.40
2017-11-20T00:40:50.862Z,92.40
2017-11-20T00:41:23.369Z,92.40
2017-11-20T00:41:55.915Z,92.10
2017-11-20T00:42:28.433Z,92.10
2017-11-20T00:43:01.717Z,92.30
2017-11-20T00:43:34.292Z,92.30
2017-11-20T00:44:06.819Z,92.50
2017-11-20T00:44:40.116Z,92.60
2017-11-20T00:45:12.666Z,92.60
2017-11-20T00:45:45.215Z,92.60
2017-11-20T00:46:17.740Z,92.40
2017-11-20T00:46:50.251Z,92.30
2017-11-20T00:47:22.792Z,92.30
2017-11-20T00:47:55.306Z,92.40
2017-11-20T00:48:27.822Z,92.40
2017-11-20T00:49:00.445Z,92.40
2017-11-20T00:49:32.968Z,92.40
2017-11-20T00:50:05.700Z,92.30
2017-11-20T00:50:38.260Z,92.40
2017-11-20T00:51:10.771Z,92.40
2017-11-20T00:51:44.524Z,92.80
2017-11-20T00:52:17.035Z,92.50
2017-11-20T00:52:49.540Z,92.60
2017-11-20T00:53:22.047Z,92.60
2017-11-20T00:53:54.565Z,92.60
2017-11-20T00:54:27.078Z,92.60
2017-11-20T00:55:01.001Z,92.90
2017-11-20T00:55:33.526Z,92.50
2017-11-20T00:56:06.048Z,92.60
2017-11-20T00:56:38.547Z,92.60
2017-11-20T00:57:11.171Z,92.50
2017-11-20T00:57:43.684Z,92.50
2017-11-20T00:58:16.203Z,92.50
2017-11-20T00:58:48.699Z,92.50
2017-11-20T00:59:21.203Z,92.50
2017-11-20T00:59:53.698Z,92.60
2017-11-20T01:00:26.226Z,92.70
2017-11-20T01:00:58.842Z,92.70
2017-11-20T01:01:31.360Z,92.80
2017-11-20T01:02:03.886Z,92.80
2017-11-20T01:02:36.399Z,92.80
2017-11-20T01:03:08.908Z,92.80
2017-11-20T01:03:41.432Z,92.70
2017-11-20T01:04:13.949Z,92.60
2017-11-20T01:04:46.478Z,92.60
2017-11-20T01:05:19.011Z,92.60
2017-11-20T01:05:51.527Z,92.60
2017-11-20T01:06:24.034Z,92.60
2017-11-20T01:06:56.536Z,92.60
2017-11-20T01:07:29.074Z,92.60
2017-11-20T01:08:01.611Z,92.70
2017-11-20T01:08:34.176Z,92.80
2017-11-20T01:09:06.690Z,92.90
2017-11-20T01:09:39.225Z,92.90
2017-11-20T01:10:11.728Z,92.90
2017-11-20T01:10:44.251Z,92.90
2017-11-20T01:11:16.778Z,92.90
2017-11-20T01:11:49.276Z,92.90
2017-11-20T01:12:21.793Z,92.90
2017-11-20T01:12:54.296Z,92.90
2017-11-20T01:13:26.813Z,92.90
2017-11-20T01:13:59.455Z,92.90
2017-11-20T01:14:31.979Z,93.00
2017-11-20T01:15:04.487Z,93.00
2017-11-20T01:15:37.011Z,92.90
2017-11-20T01:16:09.577Z,92.90
2017-11-20T01:16:42.103Z,92.90
2017-11-20T01:17:14.616Z,93.00
2017-11-20T01:17:47.260Z,93.00
2017-11-20T01:18:19.764Z,93.00
2017-11-20T01:18:52.292Z,93.00
2017-11-20T01:19:24.802Z,93.00
2017-11-20T01:19:57.307Z,93.00
2017-11-20T01:20:29.807Z,93.10
2017-11-20T01:21:02.349Z,93.10
2017-11-20T01:21:34.872Z,93.10
2017-11-20T01:22:07.389Z,93.20
2017-11-20T01:22:39.914Z,93.30
2017-11-20T01:23:12.428Z,93.40
2017-11-20T01:23:44.957Z,93.50
2017-11-20T01:24:17.470Z,93.50
2017-11-20T01:24:49.976Z,93.40
2017-11-20T01:25:22.513Z,93.40
2017-11-20T01:25:55.036Z,93.40
2017-11-20T01:26:27.558Z,93.50
2017-11-20T01:27:00.078Z,93.50
2017-11-20T01:27:32.701Z,93.50
2017-11-20T01:28:05.407Z,93.50
2017-11-20T01:28:37.918Z,93.50
2017-11-20T01:29:10.470Z,93.50
2017-11-20T01:29:43.036Z,93.60
2017-11-20T01:30:16.330Z,93.50
2017-11-20T01:30:48.831Z,93.50
2017-11-20T01:31:21.371Z,93.50
2017-11-20T01:31:53.878Z,93.40
2017-11-20T01:32:26.388Z,93.40
2017-11-20T01:32:58.934Z,93.40
2017-11-20T01:33:31.625Z,93.40
2017-11-20T01:34:04.128Z,93.50
2017-11-20T01:34:36.648Z,93.60
2017-11-20T01:35:09.193Z,93.70
2017-11-20T01:35:41.710Z,93.80
2017-11-20T01:36:14.245Z,93.80
2017-11-20T01:36:46.779Z,93.80
2017-11-20T01:37:20.064Z,93.70
2017-11-20T01:37:52.594Z,93.60
2017-11-20T01:38:25.124Z,93.70
2017-11-20T01:38:57.632Z,93.60
2017-11-20T01:39:30.164Z,93.50
2017-11-20T01:40:02.683Z,93.90
2017-11-20T01:40:35.213Z,93.60
2017-11-20T01:41:07.728Z,93.70
2017-11-20T01:41:40.378Z,93.70
2017-11-20T01:42:12.880Z,93.80
2017-11-20T01:42:46.180Z,93.80
2017-11-20T01:43:18.709Z,93.80
2017-11-20T01:43:51.282Z,93.80
2017-11-20T01:44:23.798Z,93.80
2017-11-20T01:44:56.296Z,93.80
2017-11-20T01:45:28.804Z,93.90
2017-11-20T01:46:01.309Z,93.80
2017-11-20T01:46:33.818Z,93.80
2017-11-20T01:47:06.344Z,93.80
2017-11-20T01:47:38.883Z,93.80
2017-11-20T01:48:11.415Z,93.80
2017-11-20T01:48:43.928Z,93.80
2017-11-20T01:49:16.453Z,93.80
2017-11-20T01:49:48.988Z,93.80
2017-11-20T01:50:21.505Z,93.80
2017-11-20T01:50:54.006Z,93.80
2017-11-20T01:51:26.504Z,94.10
2017-11-20T01:51:59.109Z,93.80
2017-11-20T01:52:31.619Z,93.90
2017-11-20T01:53:04.146Z,93.80
2017-11-20T01:53:36.689Z,93.80
2017-11-20T01:54:09.238Z,93.80
2017-11-20T01:54:42.541Z,93.90
2017-11-20T01:55:15.068Z,93.80
2017-11-20T01:55:47.630Z,93.80
2017-11-20T01:56:20.144Z,93.80
2017-11-20T01:56:52.663Z,93.80
2017-11-20T01:57:25.341Z,94.00
2017-11-20T01:57:58.615Z,94.00
2017-11-20T01:58:31.898Z,94.00
2017-11-20T01:59:04.419Z,94.00
2017-11-20T01:59:36.941Z,94.00
2017-11-20T02:00:09.467Z,94.00
2017-11-20T02:00:42.784Z,94.00
2017-11-20T02:01:15.318Z,94.00
2017-11-20T02:01:47.839Z,94.00
2017-11-20T02:02:20.360Z,94.00
2017-11-20T02:02:59.676Z,94.00
2017-11-20T02:03:32.962Z,94.00
2017-11-20T02:04:05.463Z,94.00
2017-11-20T02:04:37.984Z,94.00
2017-11-20T02:05:11.295Z,94.10
2017-11-20T02:05:43.806Z,94.00
2017-11-20T02:06:16.333Z,94.10
2017-11-20T02:06:48.863Z,94.10
2017-11-20T02:07:22.135Z,94.10
2017-11-20T02:07:54.665Z,94.10
2017-11-20T02:08:27.195Z,94.10
2017-11-20T02:08:59.744Z,94.10
2017-11-20T02:09:32.265Z,94.20
2017-11-20T02:10:04.785Z,94.20
2017-11-20T02:10:37.319Z,94.20
2017-11-20T02:11:09.827Z,94.20
2017-11-20T02:11:42.336Z,94.20
2017-11-20T02:12:14.861Z,94.20
2017-11-20T02:12:47.397Z,94.20
2017-11-20T02:13:19.920Z,94.20
2017-11-20T02:13:52.445Z,94.30
2017-11-20T02:14:24.959Z,94.30
2017-11-20T02:14:57.483Z,94.40
2017-11-20T02:15:30.026Z,94.40
2017-11-20T02:16:02.548Z,94.40
2017-11-20T02:16:35.072Z,94.50
2017-11-20T02:17:07.586Z,94.50
2017-11-20T02:17:40.100Z,94.50
2017-11-20T02:18:12.610Z,94.60
2017-11-20T02:18:46.008Z,94.60
2017-11-20T02:19:18.541Z,94.60
2017-11-20T02:19:51.080Z,94.60
2017-11-20T02:20:23.600Z,94.70
2017-11-20T02:20:56.122Z,94.70
2017-11-20T02:21:28.660Z,94.80
2017-11-20T02:22:01.189Z,94.80
2017-11-20T02:22:33.702Z,95.20
2017-11-20T02:23:06.224Z,94.90
2017-11-20T02:23:38.742Z,94.90
2017-11-20T02:24:11.256Z,94.90
2017-11-20T02:24:43.782Z,94.90
2017-11-20T02:25:17.054Z,95.00
2017-11-20T02:25:49.562Z,94.90
2017-11-20T02:26:22.114Z,95.00
2017-11-20T02:26:54.650Z,95.30
2017-11-20T02:27:27.933Z,95.20
2017-11-20T02:28:00.442Z,95.10
2017-11-20T02:28:32.953Z,95.20
2017-11-20T02:29:06.242Z,95.20
2017-11-20T02:29:38.774Z,95.20
2017-11-20T02:30:11.289Z,95.20
2017-11-20T02:30:43.802Z,95.20
2017-11-20T02:31:16.330Z,95.30
2017-11-20T02:31:48.865Z,95.30
2017-11-20T02:32:21.385Z,95.30
2017-11-20T02:32:53.919Z,95.30
2017-11-20T02:33:26.419Z,95.40
2017-11-20T02:33:58.928Z,95.40
2017-11-20T02:34:31.463Z,95.40
2017-11-20T02:35:04.747Z,95.50
2017-11-20T02:35:37.262Z,95.40
2017-11-20T02:36:09.776Z,95.40
2017-11-20T02:36:43.057Z,95.50
2017-11-20T02:37:17.039Z,95.40
2017-11-20T02:37:49.567Z,95.40
2017-11-20T02:38:22.075Z,95.50
2017-11-20T02:38:54.605Z,95.40
2017-11-20T02:39:27.137Z,95.50
2017-11-20T02:39:59.669Z,95.40
2017-11-20T02:40:32.193Z,95.50
2017-11-20T02:41:04.729Z,95.50
2017-11-20T02:41:37.257Z,95.60
2017-11-20T02:42:11.491Z,95.70
2017-11-20T02:42:44.582Z,95.70
2017-11-20T02:43:17.115Z,95.70
2017-11-20T02:43:49.643Z,95.70
2017-11-20T02:44:22.172Z,95.70
2017-11-20T02:44:55.501Z,95.50
2017-11-20T02:45:28.021Z,95.70
2017-11-20T02:46:00.669Z,95.80
2017-11-20T02:46:33.193Z,95.80
2017-11-20T02:47:05.741Z,95.80
2017-11-20T02:47:38.244Z,95.90
2017-11-20T02:48:10.766Z,95.90
2017-11-20T02:48:43.291Z,96.00
2017-11-20T02:49:15.806Z,96.00
2017-11-20T02:49:48.320Z,96.00
2017-11-20T02:50:20.844Z,96.00
2017-11-20T02:50:53.358Z,96.00
2017-11-20T02:51:25.892Z,96.00
2017-11-20T02:51:58.413Z,96.10
2017-11-20T02:52:30.942Z,96.10
2017-11-20T02:53:03.468Z,96.10
2017-11-20T02:53:36.006Z,96.10
2017-11-20T02:54:08.616Z,96.20
2017-11-20T02:54:41.124Z,96.20
2017-11-20T02:55:14.449Z,96.20
2017-11-20T02:55:46.967Z,96.20
2017-11-20T02:56:19.495Z,96.20
2017-11-20T02:56:52.023Z,96.30
2017-11-20T02:57:24.542Z,96.30
2017-11-20T02:57:57.063Z,96.30
2017-11-20T02:58:29.589Z,96.30
2017-11-20T02:59:02.096Z,96.40
2017-11-20T02:59:34.629Z,96.30
2017-11-20T03:00:07.909Z,96.40
2017-11-20T03:00:40.407Z,96.30
2017-11-20T03:01:12.915Z,96.40
2017-11-20T03:01:45.432Z,96.40
2017-11-20T03:02:17.968Z,96.40
2017-11-20T03:02:51.248Z,96.50
2017-11-20T03:03:24.534Z,96.50
2017-11-20T03:03:57.068Z,96.50
2017-11-20T03:04:29.716Z,96.60
2017-11-20T03:05:02.253Z,96.60
2017-11-20T03:05:34.781Z,96.90
2017-11-20T03:06:08.072Z,96.60
2017-11-20T03:06:41.390Z,96.70
2017-11-20T03:07:13.929Z,96.60
2017-11-20T03:07:46.485Z,96.70
2017-11-20T03:08:19.027Z,96.70
2017-11-20T03:08:52.321Z,96.80
2017-11-20T03:09:24.844Z,96.70
2017-11-20T03:09:57.380Z,96.70
2017-11-20T03:10:29.907Z,96.70
2017-11-20T03:11:03.221Z,96.80
2017-11-20T03:11:35.755Z,96.80
2017-11-20T03:12:08.275Z,96.80
2017-11-20T03:12:40.811Z,96.80
2017-11-20T03:13:13.339Z,96.80
2017-11-20T03:13:46.614Z,96.90
2017-11-20T03:14:19.143Z,96.80
2017-11-20T03:14:51.681Z,96.80
2017-11-20T03:15:24.200Z,96.80
2017-11-20T03:15:56.737Z,96.80
2017-11-20T03:16:29.305Z,96.80
2017-11-20T03:17:03.016Z,96.80
2017-11-20T03:17:35.546Z,96.80
2017-11-20T03:18:08.073Z,96.80
2017-11-20T03:18:40.570Z,96.80
2017-11-20T03:19:13.074Z,96.80
2017-11-20T03:19:45.593Z,96.80
2017-11-20T03:20:18.102Z,96.80
2017-11-20T03:20:50.619Z,96.80
2017-11-20T03:21:23.140Z,96.90
2017-11-20T03:21:55.653Z,96.90
2017-11-20T03:22:28.184Z,96.90
2017-11-20T03:23:00.708Z,96.90
2017-11-20T03:23:33.219Z,96.90
2017-11-20T03:24:05.793Z,96.90
2017-11-20T03:24:38.335Z,96.90
2017-11-20T03:25:10.856Z,96.90
2017-11-20T03:25:43.375Z,97.00
2017-11-20T03:26:15.908Z,97.00
2017-11-20T03:26:49.212Z,96.90
2017-11-20T03:27:21.727Z,96.90
2017-11-20T03:27:54.252Z,96.90
2017-11-20T03:28:26.782Z,96.90
2017-11-20T03:28:59.303Z,97.00
2017-11-20T03:29:31.839Z,97.00
2017-11-20T03:30:04.366Z,97.00
2017-11-20T03:30:37.641Z,97.00
2017-11-20T03:31:10.166Z,97.00
2017-11-20T03:31:42.697Z,97.00
2017-11-20T03:32:15.224Z,97.00
2017-11-20T03:32:48.525Z,97.20
2017-11-20T03:33:21.044Z,97.00
2017-11-20T03:33:53.591Z,97.00
2017-11-20T03:34:26.104Z,97.00
2017-11-20T03:34:59.416Z,97.10
2017-11-20T03:35:31.945Z,97.00
2017-11-20T03:36:04.484Z,97.10
2017-11-20T03:36:37.048Z,97.10
2017-11-20T03:37:09.565Z,97.10
2017-11-20T03:37:42.096Z,97.10
2017-11-20T03:38:15.377Z,97.10
2017-11-20T03:38:47.899Z,97.10
2017-11-20T03:39:20.409Z,97.10
2017-11-20T03:39:53.828Z,97.20
2017-11-20T03:40:26.353Z,97.20
2017-11-20T03:40:58.898Z,97.20
2017-11-20T03:41:31.409Z,97.20
2017-11-20T03:42:03.931Z,97.20
2017-11-20T03:42:36.458Z,97.20
2017-11-20T03:43:08.984Z,97.20
2017-11-20T03:43:42.280Z,97.30
2017-11-20T03:44:14.810Z,97.20
2017-11-20T03:44:47.332Z,97.30
2017-11-20T03:45:19.853Z,97.30
2017-11-20T03:45:52.366Z,97.30
2017-11-20T03:46:24.888Z,97.30
2017-11-20T03:46:57.465Z,97.30
2017-11-20T03:47:29.982Z,97.30
2017-11-20T03:48:02.593Z,97.30
2017-11-20T03:48:35.129Z,97.30
2017-11-20T03:49:08.411Z,97.40
2017-11-20T03:49:41.721Z,97.40
2017-11-20T03:50:14.228Z,97.40
2017-11-20T03:50:47.529Z,97.40
2017-11-20T03:51:20.040Z,97.40
2017-11-20T03:51:52.560Z,97.40
2017-11-20T03:52:25.099Z,97.40
2017-11-20T03:52:57.644Z,97.70
2017-11-20T03:53:30.154Z,97.30
2017-11-20T03:54:02.692Z,97.40
2017-11-20T03:54:35.206Z,97.40
2017-11-20T03:55:07.725Z,97.40
2017-11-20T03:55:40.240Z,97.50
2017-11-20T03:56:12.767Z,97.40
2017-11-20T03:56:45.301Z,97.40
2017-11-20T03:57:18.026Z,97.40
2017-11-20T03:57:50.565Z,97.40
2017-11-20T03:58:23.864Z,97.40
2017-11-20T03:58:56.394Z,97.40
2017-11-20T03:59:29.684Z,97.50
2017-11-20T04:00:02.196Z,97.40
2017-11-20T04:00:34.729Z,97.40
2017-11-20T04:01:07.243Z,97.40
2017-11-20T04:01:39.757Z,97.40
2017-11-20T04:02:12.297Z,97.40
2017-11-20T04:02:45.576Z,97.40
2017-11-20T04:03:18.860Z,97.70
2017-11-20T04:03:51.391Z,97.40
2017-11-20T04:04:23.920Z,97.40
2017-11-20T04:04:56.453Z,97.40
2017-11-20T04:05:29.734Z,97.30
2017-11-20T04:06:02.244Z,97.30
2017-11-20T04:06:34.752Z,97.30
2017-11-20T04:07:08.020Z,97.40
2017-11-20T04:07:40.600Z,97.30
2017-11-20T04:08:13.879Z,97.30
2017-11-20T04:08:46.395Z,97.30
2017-11-20T04:09:18.924Z,97.30
2017-11-20T04:09:51.426Z,97.30
2017-11-20T04:10:23.962Z,97.30
2017-11-20T04:10:56.494Z,97.40
2017-11-20T04:11:29.779Z,97.40
2017-11-20T04:12:03.055Z,97.40
2017-11-20T04:12:35.635Z,97.30
2017-11-20T04:13:08.148Z,97.30
2017-11-20T04:13:40.671Z,97.30
2017-11-20T04:14:13.191Z,97.30
2017-11-20T04:14:45.700Z,97.30
2017-11-20T04:15:18.246Z,97.30
2017-11-20T04:15:51.551Z,97.30
2017-11-20T04:16:24.068Z,97.30
2017-11-20T04:16:56.623Z,97.30
2017-11-20T04:17:29.181Z,97.20
2017-11-20T04:18:01.696Z,97.20
2017-11-20T04:18:34.215Z,97.20
2017-11-20T04:19:06.736Z,97.20
2017-11-20T04:19:39.264Z,97.10
2017-11-20T04:20:11.767Z,97.10
2017-11-20T04:20:44.289Z,97.10
2017-11-20T04:21:16.821Z,97.10
2017-11-20T04:21:49.333Z,97.10
2017-11-20T04:22:21.865Z,97.20
2017-11-20T04:22:54.382Z,97.20
2017-11-20T04:23:26.927Z,97.20
2017-11-20T04:23:59.439Z,97.20
2017-11-20T04:24:31.963Z,97.10
2017-11-20T04:25:04.481Z,97.20
2017-11-20T04:25:36.999Z,97.10
2017-11-20T04:26:09.540Z,97.10
2017-11-20T04:26:42.061Z,97.10
2017-11-20T04:27:14.572Z,97.10
2017-11-20T04:27:47.112Z,97.10
2017-11-20T04:28:20.394Z,97.00
2017-11-20T04:28:53.668Z,97.00
2017-11-20T04:29:26.190Z,97.00
2017-11-20T04:29:58.712Z,97.00
2017-11-20T04:30:31.248Z,97.00
2017-11-20T04:31:03.755Z,96.90
2017-11-20T04:31:36.290Z,96.80
2017-11-20T04:32:09.600Z,97.00
2017-11-20T04:32:42.137Z,96.90
2017-11-20T04:33:14.650Z,97.00
2017-11-20T04:33:47.169Z,97.00
2017-11-20T04:34:19.679Z,97.00
2017-11-20T04:34:52.984Z,97.00
2017-11-20T04:35:25.524Z,97.00
2017-11-20T04:35:58.109Z,97.00
2017-11-20T04:36:30.668Z,96.90
2017-11-20T04:37:03.176Z,96.80
2017-11-20T04:37:35.713Z,97.00
2017-11-20T04:38:08.261Z,96.60
2017-11-20T04:38:40.764Z,96.50
2017-11-20T04:39:13.279Z,96.50
2017-11-20T04:39:45.795Z,96.50
2017-11-20T04:40:18.368Z,96.50
2017-11-20T04:40:50.887Z,96.50
2017-11-20T04:41:23.400Z,96.50
2017-11-20T04:41:55.910Z,96.70
2017-11-20T04:42:28.438Z,96.40
2017-11-20T04:43:01.027Z,96.40
2017-11-20T04:43:33.565Z,96.40
2017-11-20T04:44:06.089Z,96.40
2017-11-20T04:44:38.612Z,96.40
2017-11-20T04:45:11.121Z,96.40
2017-11-20T04:45:43.677Z,96.30
2017-11-20T04:46:16.990Z,96.40
2017-11-20T04:46:49.503Z,96.40
2017-11-20T04:47:22.025Z,96.50
2017-11-20T04:47:54.543Z,96.50
2017-11-20T04:48:28.001Z,96.40
2017-11-20T04:49:00.550Z,96.40
2017-11-20T04:49:33.108Z,96.40
2017-11-20T04:50:05.634Z,96.50
2017-11-20T04:50:38.212Z,96.50
2017-11-20T04:51:10.728Z,96.50
2017-11-20T04:51:43.256Z,96.40
2017-11-20T04:52:15.775Z,96.40
2017-11-20T04:52:48.311Z,96.40
2017-11-20T04:53:20.843Z,96.40
2017-11-20T04:53:53.360Z,96.30
2017-11-20T04:54:26.631Z,96.40
2017-11-20T04:54:59.148Z,96.40
2017-11-20T04:55:31.679Z,96.40
2017-11-20T04:56:04.384Z,96.70
2017-11-20T04:56:36.931Z,96.40
2017-11-20T04:57:09.456Z,96.40
2017-11-20T04:57:42.164Z,96.40
2017-11-20T04:58:14.684Z,96.30
2017-11-20T04:58:47.252Z,96.30
2017-11-20T04:59:19.852Z,96.40
2017-11-20T04:59:52.376Z,96.40
2017-11-20T05:00:24.939Z,96.50
2017-11-20T05:00:57.448Z,96.50
2017-11-20T05:01:30.004Z,96.50
2017-11-20T05:02:02.640Z,96.50
2017-11-20T05:02:35.935Z,96.50
2017-11-20T05:03:08.503Z,96.50
2017-11-20T05:03:41.033Z,96.50
2017-11-20T05:04:13.541Z,96.50
2017-11-20T05:04:46.155Z,96.50
2017-11-20T05:05:18.669Z,96.50
2017-11-20T05:05:51.232Z,96.50
2017-11-20T05:06:23.747Z,96.50
2017-11-20T05:06:56.260Z,96.50
2017-11-20T05:07:28.784Z,96.50
2017-11-20T05:08:01.308Z,96.40
2017-11-20T05:08:33.837Z,96.40
2017-11-20T05:09:07.154Z,96.40
2017-11-20T05:09:39.680Z,96.40
2017-11-20T05:10:12.242Z,96.40
2017-11-20T05:10:44.764Z,96.40
2017-11-20T05:11:17.281Z,96.30
2017-11-20T05:11:49.791Z,96.30
2017-11-20T05:12:22.328Z,96.30
2017-11-20T05:12:55.093Z,96.20
2017-11-20T05:13:27.631Z,96.10
2017-11-20T05:14:00.161Z,96.10
2017-11-20T05:14:32.879Z,96.10
2017-11-20T05:15:05.441Z,96.10
2017-11-20T05:15:37.981Z,96.10
2017-11-20T05:16:10.503Z,96.10
2017-11-20T05:16:43.856Z,96.00
2017-11-20T05:17:16.390Z,96.00
2017-11-20T05:17:49.664Z,95.90
2017-11-20T05:18:22.181Z,95.90
2017-11-20T05:18:54.692Z,95.90
2017-11-20T05:19:27.974Z,96.10
2017-11-20T05:20:00.501Z,96.00
2017-11-20T05:20:33.019Z,96.00
2017-11-20T05:21:05.577Z,95.90
2017-11-20T05:21:38.094Z,95.90
2017-11-20T05:22:10.639Z,96.00
2017-11-20T05:22:43.148Z,96.00
2017-11-20T05:23:16.428Z,96.10
2017-11-20T05:23:49.706Z,96.00
2017-11-20T05:24:22.235Z,95.90
2017-11-20T05:24:54.795Z,95.90
2017-11-20T05:25:27.319Z,95.80
2017-11-20T05:25:59.861Z,95.80
2017-11-20T05:26:33.178Z,95.80
2017-11-20T05:27:05.692Z,95.80
2017-11-20T05:27:38.217Z,95.80
2017-11-20T05:28:10.750Z,95.90
2017-11-20T05:28:43.252Z,95.90
2017-11-20T05:29:15.785Z,95.90
2017-11-20T05:29:48.305Z,95.90
2017-11-20T05:30:20.823Z,95.80
2017-11-20T05:30:53.430Z,95.70
2017-11-20T05:31:25.941Z,95.80
2017-11-20T05:31:58.487Z,95.80
2017-11-20T05:32:31.017Z,95.70
2017-11-20T05:33:03.589Z,95.80
2017-11-20T05:33:36.185Z,95.80
2017-11-20T05:34:08.726Z,95.90
2017-11-20T05:34:41.248Z,95.80
2017-11-20T05:35:13.784Z,95.80
2017-11-20T05:35:46.330Z,95.80
2017-11-20T05:36:19.022Z,95.90
2017-11-20T05:36:51.687Z,95.90
2017-11-20T05:37:24.248Z,95.90
2017-11-20T05:37:56.779Z,95.90
2017-11-20T05:38:29.321Z,95.90
2017-11-20T05:39:01.838Z,95.80
2017-11-20T05:39:34.383Z,95.60
2017-11-20T05:40:06.931Z,95.60
2017-11-20T05:40:40.301Z,95.70
2017-11-20T05:41:12.822Z,95.70
2017-11-20T05:41:45.388Z,95.70
2017-11-20T05:42:17.935Z,95.80
2017-11-20T05:42:50.605Z,95.80
2017-11-20T05:43:23.157Z,95.80
2017-11-20T05:43:55.690Z,95.90
2017-11-20T05:44:28.223Z,95.90
2017-11-20T05:45:00.837Z,95.90
2017-11-20T05:45:34.116Z,96.00
2017-11-20T05:46:06.646Z,95.90
2017-11-20T05:46:39.176Z,96.30
2017-11-20T05:47:11.704Z,96.00
2017-11-20T05:47:44.979Z,96.00
2017-11-20T05:48:17.682Z,96.00
2017-11-20T05:48:50.205Z,96.00
2017-11-20T05:49:22.745Z,96.00
2017-11-20T05:49:55.271Z,96.00
2017-11-20T05:50:27.793Z,96.00
2017-11-20T05:51:00.300Z,96.00
2017-11-20T05:51:32.818Z,95.90
2017-11-20T05:52:05.329Z,96.00
2017-11-20T05:52:37.851Z,96.00
2017-11-20T05:53:10.385Z,95.80
2017-11-20T05:53:43.058Z,95.80
2017-11-20T05:54:15.602Z,95.80
2017-11-20T05:54:48.156Z,95.80
2017-11-20T05:55:20.672Z,95.90
2017-11-20T05:55:53.205Z,95.70
2017-11-20T05:56:25.735Z,95.70
2017-11-20T05:56:58.317Z,95.70
2017-11-20T05:57:30.851Z,95.70
2017-11-20T05:58:03.354Z,95.80
2017-11-20T05:58:35.880Z,95.80
2017-11-20T05:59:08.413Z,95.70
2017-11-20T05:59:41.693Z,95.60
2017-11-20T06:00:14.227Z,95.70
2017-11-20T06:00:46.790Z,95.70
2017-11-20T06:01:19.336Z,95.70
2017-11-20T06:01:51.861Z,95.80
2017-11-20T06:02:24.394Z,95.80
2017-11-20T06:02:56.923Z,95.80
2017-11-20T06:03:29.439Z,95.80
2017-11-20T06:04:02.787Z,95.60
2017-11-20T06:04:35.345Z,95.60
2017-11-20T06:05:07.888Z,95.60
2017-11-20T06:05:40.425Z,95.70
2017-11-20T06:06:13.835Z,95.80
2017-11-20T06:06:46.356Z,95.80
2017-11-20T06:07:18.874Z,95.80
2017-11-20T06:07:51.474Z,95.80
2017-11-20T06:08:24.060Z,95.70
2017-11-20T06:08:57.351Z,95.80
2017-11-20T06:09:30.632Z,95.80
2017-11-20T06:10:03.331Z,95.80
2017-11-20T06:10:35.838Z,95.70
2017-11-20T06:11:08.431Z,95.50
2017-11-20T06:11:40.996Z,95.50
2017-11-20T06:12:13.521Z,95.60
2017-11-20T06:12:46.849Z,95.60
2017-11-20T06:13:19.378Z,95.60
2017-11-20T06:13:51.947Z,95.60
2017-11-20T06:14:25.231Z,95.40
2017-11-20T06:14:57.824Z,95.40
2017-11-20T06:15:30.621Z,95.50
2017-11-20T06:16:03.172Z,95.40
2017-11-20T06:16:35.693Z,95.40
2017-11-20T06:17:09.014Z,95.50
2017-11-20T06:17:41.528Z,95.80
2017-11-20T06:18:14.065Z,95.50
2017-11-20T06:18:46.620Z,95.50
2017-11-20T06:19:19.482Z,95.50
2017-11-20T06:19:52.005Z,95.60
2017-11-20T06:20:25.308Z,95.50
2017-11-20T06:20:57.843Z,95.50
2017-11-20T06:21:30.367Z,95.40
2017-11-20T06:22:02.908Z,95.20
2017-11-20T06:22:35.522Z,95.30
2017-11-20T06:23:08.068Z,95.20
2017-11-20T06:23:40.628Z,95.30
2017-11-20T06:24:13.156Z,95.40
2017-11-20T06:24:45.677Z,95.60
2017-11-20T06:25:18.185Z,95.60
2017-11-20T06:25:50.706Z,95.50
2017-11-20T06:26:23.244Z,95.40
2017-11-20T06:26:55.763Z,95.40
2017-11-20T06:27:28.313Z,95.40
2017-11-20T06:28:00.829Z,95.40
2017-11-20T06:28:33.359Z,95.50
2017-11-20T06:29:05.932Z,95.50
2017-11-20T06:29:38.573Z,95.40
2017-11-20T06:30:11.134Z,95.30
2017-11-20T06:30:43.641Z,95.20
2017-11-20T06:31:16.255Z,95.20
2017-11-20T06:31:48.824Z,95.30
2017-11-20T06:32:21.395Z,95.30
2017-11-20T06:32:53.946Z,95.20
2017-11-20T06:33:26.508Z,95.10
2017-11-20T06:33:59.047Z,95.10
2017-11-20T06:34:31.728Z,95.00
2017-11-20T06:35:04.253Z,95.00
2017-11-20T06:35:36.913Z,95.30
2017-11-20T06:36:09.582Z,95.30
2017-11-20T06:36:42.150Z,95.20
2017-11-20T06:37:14.730Z,95.20
2017-11-20T06:37:47.273Z,95.20
2017-11-20T06:38:19.914Z,95.00
2017-11-20T06:38:52.497Z,94.80
2017-11-20T06:39:25.021Z,94.80
2017-11-20T06:39:57.553Z,94.80
2017-11-20T06:40:30.093Z,94.80
2017-11-20T06:41:02.611Z,94.90
2017-11-20T06:41:35.909Z,95.00
2017-11-20T06:42:08.431Z,95.00
2017-11-20T06:42:40.990Z,95.10
2017-11-20T06:43:13.557Z,95.10
2017-11-20T06:43:46.100Z,95.00
2017-11-20T06:44:18.643Z,94.90
2017-11-20T06:44:51.162Z,95.00
2017-11-20T06:45:24.513Z,94.90
2017-11-20T06:45:57.826Z,95.00
2017-11-20T06:46:30.393Z,95.00
2017-11-20T06:47:03.692Z,95.10
2017-11-20T06:47:36.211Z,95.10
2017-11-20T06:48:08.768Z,95.10
2017-11-20T06:48:42.047Z,95.20
2017-11-20T06:49:14.711Z,95.10
2017-11-20T06:49:47.254Z,95.20
2017-11-20T06:50:19.803Z,95.10
2017-11-20T06:50:52.392Z,95.10
2017-11-20T06:51:24.913Z,95.10
2017-11-20T06:51:58.211Z,94.80
2017-11-20T06:52:30.858Z,94.80
2017-11-20T06:53:03.373Z,94.90
2017-11-20T06:53:35.967Z,95.00
2017-11-20T06:54:08.571Z,95.00
2017-11-20T06:54:41.169Z,95.00
2017-11-20T06:55:13.701Z,95.00
2017-11-20T06:55:46.307Z,94.90
2017-11-20T06:56:18.831Z,94.90
2017-11-20T06:56:51.349Z,94.90
2017-11-20T06:57:23.949Z,94.80
2017-11-20T06:57:56.488Z,94.70
2017-11-20T06:58:29.041Z,94.70
2017-11-20T06:59:01.655Z,94.80
2017-11-20T06:59:34.200Z,94.80
2017-11-20T07:00:06.715Z,94.80